Time;durP1;ratioP1;P1;durP2;ratioP2;P2;SDS_P1;SDS_P2;PMS_P1;PMS_P2;Temp;Humidity;BMP_temperature;BMP_pressure;BME280_temperature;BME280_humidity;BME280_pressure;Samples;Min_cycle;Max_cycle;Signal;HPM_P1;HPM_P2
2022/01/11 00:02:03;;;;;;;23.02;20.05;;;1.80;92.40;;;;;;4960480;28;20051;-77
2022/01/11 00:04:30;;;;;;;21.92;19.55;;;1.80;92.50;;;;;;4960597;28;20058;-75
2022/01/11 00:06:57;;;;;;;23.35;19.92;;;1.80;92.50;;;;;;4960342;28;20515;-76
2022/01/11 00:09:38;;;;;;;25.10;20.50;;;1.70;92.40;;;;;;4944399;28;20070;-75
2022/01/11 00:12:06;;;;;;;23.75;19.98;;;1.70;92.40;;;;;;4944268;28;20162;-74
2022/01/11 00:14:32;;;;;;;24.38;20.73;;;1.70;92.40;;;;;;4960405;28;20480;-76
2022/01/11 00:16:59;;;;;;;22.80;19.63;;;1.70;92.40;;;;;;4943664;28;20055;-76
2022/01/11 00:19:25;;;;;;;21.67;19.38;;;1.60;92.40;;;;;;4944403;28;20061;-75
2022/01/11 00:21:51;;;;;;;24.08;20.15;;;1.60;92.40;;;;;;4959833;28;20038;-76
2022/01/11 00:24:33;;;;;;;22.73;19.52;;;1.60;92.40;;;;;;4944104;28;20113;-75
2022/01/11 00:27:04;;;;;;;22.38;18.92;;;1.60;92.40;;;;;;4975804;28;20130;-76
2022/01/11 00:29:30;;;;;;;22.63;19.17;;;1.50;92.40;;;;;;4960315;28;20042;-76
2022/01/11 00:32:00;;;;;;;21.95;19.17;;;1.50;92.40;;;;;;4943411;28;20125;-76
2022/01/11 00:34:28;;;;;;;21.38;19.13;;;1.50;92.40;;;;;;4960563;28;20110;-76
2022/01/11 00:36:54;;;;;;;22.17;19.88;;;1.50;92.40;;;;;;4943446;28;20046;-75
2022/01/11 00:39:19;;;;;;;22.27;19.17;;;1.50;92.40;;;;;;4943627;28;20047;-76
2022/01/11 00:41:45;;;;;;;21.17;18.88;;;1.50;92.40;;;;;;4959481;28;20042;-75
2022/01/11 00:44:13;;;;;;;22.40;20.00;;;1.40;92.40;;;;;;4943478;28;20047;-75
2022/01/11 00:46:40;;;;;;;22.25;19.63;;;1.40;92.40;;;;;;4959538;28;20197;-75
2022/01/11 00:49:06;;;;;;;24.15;20.67;;;1.40;92.40;;;;;;4927382;28;20055;-75
2022/01/11 00:51:32;;;;;;;21.17;18.98;;;1.40;92.40;;;;;;4959554;28;20058;-75
2022/01/11 00:53:58;;;;;;;20.80;18.58;;;1.40;92.40;;;;;;4976544;28;20498;-76
2022/01/11 00:56:23;;;;;;;22.38;19.67;;;1.40;92.40;;;;;;4959420;28;20137;-75
2022/01/11 00:58:49;;;;;;;21.05;19.02;;;1.40;92.40;;;;;;4958168;28;20177;-75
2022/01/11 01:01:15;;;;;;;23.45;19.30;;;1.40;92.40;;;;;;4927743;28;20058;-76
2022/01/11 01:03:40;;;;;;;24.00;19.67;;;1.30;92.40;;;;;;4958872;28;20058;-75
2022/01/11 01:06:06;;;;;;;21.42;18.90;;;1.30;92.40;;;;;;4959053;28;20055;-75
2022/01/11 01:08:32;;;;;;;21.80;19.45;;;1.30;92.40;;;;;;4942815;28;20097;-75
2022/01/11 01:10:58;;;;;;;22.48;20.05;;;1.30;92.40;;;;;;4975811;28;20055;-75
2022/01/11 01:13:26;;;;;;;24.70;20.27;;;1.30;92.40;;;;;;4958824;28;20042;-76
2022/01/11 01:15:55;;;;;;;26.98;22.30;;;1.20;92.40;;;;;;4958433;28;20051;-75
2022/01/11 01:18:25;;;;;;;24.90;20.77;;;1.20;92.40;;;;;;4959011;28;20050;-75
2022/01/11 01:20:54;;;;;;;24.17;20.60;;;1.20;92.70;;;;;;4958856;28;20090;-76
2022/01/11 01:23:20;;;;;;;23.65;21.13;;;1.20;92.40;;;;;;4911983;28;20097;-76
2022/01/11 01:25:46;;;;;;;25.08;21.52;;;1.20;92.40;;;;;;4944399;28;20051;-75
2022/01/11 01:28:12;;;;;;;26.35;21.25;;;1.20;92.50;;;;;;4927280;28;20579;-75
2022/01/11 01:30:37;;;;;;;25.00;21.45;;;1.20;92.50;;;;;;4943220;28;20050;-75
2022/01/11 01:33:03;;;;;;;25.08;21.92;;;1.20;92.50;;;;;;4975748;28;20434;-75
2022/01/11 01:35:34;;;;;;;25.58;21.90;;;1.20;92.60;;;;;;4959151;28;20047;-76
2022/01/11 01:38:00;;;;;;;27.65;21.88;;;1.20;92.50;;;;;;4943569;28;20051;-75
2022/01/11 01:40:36;;;;;;;26.73;22.00;;;1.20;92.60;;;;;;4960735;28;20054;-75
2022/01/11 01:43:08;;;;;;;27.70;22.88;;;1.20;92.60;;;;;;4943986;28;20471;-76
2022/01/11 01:45:34;;;;;;;26.58;21.98;;;1.20;92.60;;;;;;4945190;28;20050;-75
2022/01/11 01:48:00;;;;;;;27.08;22.25;;;1.20;92.70;;;;;;4960406;28;20514;-75
2022/01/11 01:50:26;;;;;;;26.63;21.88;;;1.20;92.70;;;;;;4960305;28;20043;-75
2022/01/11 01:52:53;;;;;;;26.08;22.40;;;1.20;92.70;;;;;;4960870;28;20395;-78
2022/01/11 01:55:19;;;;;;;28.52;22.80;;;1.20;92.70;;;;;;4943411;28;20065;-76
2022/01/11 01:57:44;;;;;;;30.52;24.02;;;1.30;92.80;;;;;;4928438;28;20050;-76
2022/01/11 02:00:12;;;;;;;28.65;22.55;;;1.30;92.80;;;;;;4944616;28;20086;-76
2022/01/11 02:02:41;;;;;;;30.45;23.42;;;1.20;92.80;;;;;;4977519;28;20118;-75
2022/01/11 02:05:09;;;;;;;31.42;23.20;;;1.30;92.80;;;;;;4942743;28;20630;-77
2022/01/11 02:07:35;;;;;;;28.33;22.42;;;1.30;92.80;;;;;;4960480;28;20042;-76
2022/01/11 02:10:08;;;;;;;27.17;22.75;;;1.30;92.90;;;;;;4958688;28;20492;-75
2022/01/11 02:12:34;;;;;;;28.75;22.13;;;1.20;92.80;;;;;;4928096;28;20487;-76
2022/01/11 02:15:00;;;;;;;30.27;23.75;;;1.30;92.80;;;;;;4912688;28;20079;-75
2022/01/11 02:17:29;;;;;;;26.20;21.58;;;1.30;92.90;;;;;;4959563;28;20046;-74
2022/01/11 02:19:57;;;;;;;29.67;23.23;;;1.30;92.90;;;;;;4927992;28;20043;-77
2022/01/11 02:22:24;;;;;;;30.10;23.15;;;1.30;92.90;;;;;;4960063;28;20066;-76
2022/01/11 02:24:50;;;;;;;29.95;22.75;;;1.30;92.90;;;;;;4942546;28;20059;-75
2022/01/11 02:27:16;;;;;;;28.05;23.85;;;1.30;92.90;;;;;;4956876;28;20047;-74
2022/01/11 02:29:42;;;;;;;28.42;21.90;;;1.30;92.90;;;;;;4957090;28;20097;-75
2022/01/11 02:32:08;;;;;;;31.63;22.52;;;1.30;92.90;;;;;;4940882;28;20054;-76
2022/01/11 02:34:33;;;;;;;28.55;22.10;;;1.30;92.90;;;;;;4974467;28;20133;-76
2022/01/11 02:36:59;;;;;;;30.38;21.90;;;1.30;92.90;;;;;;4925293;28;20049;-76
2022/01/11 02:39:25;;;;;;;30.55;21.95;;;1.30;92.90;;;;;;4956745;28;20042;-76
2022/01/11 02:41:54;;;;;;;29.83;22.73;;;1.30;92.90;;;;;;4957292;28;20368;-76
2022/01/11 02:44:20;;;;;;;27.67;22.00;;;1.30;92.90;;;;;;4957046;28;20101;-76
2022/01/11 02:46:45;;;;;;;26.17;21.17;;;1.30;92.90;;;;;;4925415;28;20054;-76
2022/01/11 02:49:11;;;;;;;26.13;21.25;;;1.20;92.90;;;;;;4940249;28;20186;-76
2022/01/11 02:51:37;;;;;;;30.20;22.48;;;1.30;93.00;;;;;;4925036;28;20113;-76
2022/01/11 02:54:05;;;;;;;29.15;22.27;;;1.30;93.00;;;;;;4925354;28;20043;-75
2022/01/11 02:56:30;;;;;;;26.90;21.17;;;1.30;93.00;;;;;;4941476;28;20055;-75
2022/01/11 02:58:56;;;;;;;28.33;21.27;;;1.30;93.00;;;;;;4940970;28;20057;-75
2022/01/11 03:01:22;;;;;;;29.50;20.95;;;1.30;93.00;;;;;;4940735;28;20054;-76
2022/01/11 03:03:48;;;;;;;29.45;21.45;;;1.30;93.00;;;;;;4940253;28;20401;-76
2022/01/11 03:06:13;;;;;;;28.20;20.33;;;1.30;93.00;;;;;;4956296;28;20065;-75
2022/01/11 03:08:44;;;;;;;30.45;22.42;;;1.30;93.00;;;;;;4956590;28;20142;-75
2022/01/11 03:11:10;;;;;;;30.00;22.10;;;1.30;93.00;;;;;;4956515;28;20050;-75
2022/01/11 03:13:38;;;;;;;31.35;20.83;;;1.30;93.10;;;;;;4956700;28;20042;-74
2022/01/11 03:16:04;;;;;;;32.38;23.77;;;1.30;93.10;;;;;;4909399;28;20055;-75
2022/01/11 03:18:29;;;;;;;33.47;23.67;;;1.30;93.10;;;;;;4972253;28;20097;-75
2022/01/11 03:20:55;;;;;;;31.95;22.13;;;1.30;93.10;;;;;;4956240;28;20059;-75
2022/01/11 03:23:21;;;;;;;31.13;23.13;;;1.30;93.10;;;;;;4939883;28;20042;-75
2022/01/11 03:25:48;;;;;;;32.72;22.67;;;1.30;93.10;;;;;;4925052;28;20046;-74
2022/01/11 03:28:14;;;;;;;32.20;23.10;;;1.40;93.20;;;;;;4975693;28;20121;-75
2022/01/11 03:30:42;;;;;;;32.88;24.23;;;1.40;93.20;;;;;;4943377;28;20097;-76
2022/01/11 03:33:08;;;;;;;34.30;23.13;;;1.40;93.20;;;;;;4973913;28;20046;-76
2022/01/11 03:35:38;;;;;;;32.90;23.42;;;1.40;93.20;;;;;;4973884;28;20108;-74
2022/01/11 03:38:04;;;;;;;34.58;22.90;;;1.40;93.20;;;;;;4941398;28;20561;-74
2022/01/11 03:40:29;;;;;;;32.15;23.30;;;1.40;93.20;;;;;;4940984;28;20050;-75
2022/01/11 03:42:55;;;;;;;34.88;24.05;;;1.40;93.20;;;;;;4957061;28;20117;-75
2022/01/11 03:45:21;;;;;;;33.78;22.83;;;1.40;93.20;;;;;;4956870;28;20047;-74
2022/01/11 03:47:48;;;;;;;33.65;23.75;;;1.40;93.20;;;;;;4974040;28;20177;-75
2022/01/11 03:50:14;;;;;;;35.17;24.17;;;1.40;93.20;;;;;;4973813;28;20075;-74
2022/01/11 03:52:39;;;;;;;36.60;25.45;;;1.40;93.30;;;;;;4956264;28;20152;-74
2022/01/11 03:55:11;;;;;;;37.22;24.95;;;1.40;93.30;;;;;;4940408;28;20043;-74
2022/01/11 03:57:37;;;;;;;37.80;26.35;;;1.40;93.30;;;;;;4940688;28;20046;-75
2022/01/11 04:00:06;;;;;;;39.75;24.33;;;1.40;93.30;;;;;;4973901;28;20057;-75
2022/01/11 04:02:32;;;;;;;40.25;24.98;;;1.40;93.30;;;;;;4955639;28;20054;-76
2022/01/11 04:04:58;;;;;;;42.53;27.20;;;1.50;93.30;;;;;;4940208;28;20053;-76
2022/01/11 04:07:25;;;;;;;40.10;25.38;;;1.50;93.30;;;;;;4955655;28;20065;-75
2022/01/11 04:09:51;;;;;;;42.95;27.00;;;1.50;93.30;;;;;;4939903;28;20058;-76
2022/01/11 04:12:17;;;;;;;44.17;27.80;;;1.50;93.30;;;;;;4972088;28;20090;-75
2022/01/11 04:14:43;;;;;;;41.13;26.65;;;1.40;93.30;;;;;;4955864;28;20089;-75
2022/01/11 04:17:09;;;;;;;39.42;25.40;;;1.50;93.30;;;;;;4956211;28;20547;-73
2022/01/11 04:19:35;;;;;;;44.20;27.35;;;1.50;93.30;;;;;;4955932;28;20055;-76
2022/01/11 04:22:00;;;;;;;40.85;26.30;;;1.50;93.40;;;;;;4973322;28;20046;-76
2022/01/11 04:24:26;;;;;;;42.80;28.00;;;1.50;93.40;;;;;;4973162;28;20057;-75
2022/01/11 04:26:52;;;;;;;41.83;26.63;;;1.50;93.30;;;;;;4940017;28;20047;-75
2022/01/11 04:29:17;;;;;;;41.88;27.25;;;1.50;93.40;;;;;;4940128;28;20125;-75
2022/01/11 04:31:43;;;;;;;42.15;25.50;;;1.50;93.30;;;;;;4971637;28;20090;-75
2022/01/11 04:34:09;;;;;;;44.88;28.42;;;1.50;93.40;;;;;;4927313;28;20446;-74
2022/01/11 04:36:35;;;;;;;42.00;25.17;;;1.50;93.30;;;;;;4976104;28;20425;-75
2022/01/11 04:39:01;;;;;;;41.20;27.10;;;1.50;93.40;;;;;;4959204;28;20086;-75
2022/01/11 04:41:27;;;;;;;38.53;24.77;;;1.50;93.40;;;;;;4958275;28;20066;-74
2022/01/11 04:43:52;;;;;;;35.95;25.52;;;1.50;93.40;;;;;;4976738;28;20035;-75
2022/01/11 04:46:19;;;;;;;38.25;24.90;;;1.50;93.40;;;;;;4976774;28;20499;-75
2022/01/11 04:48:46;;;;;;;38.65;25.92;;;1.50;93.40;;;;;;4975623;28;20057;-74
2022/01/11 04:51:11;;;;;;;38.40;25.27;;;1.50;93.40;;;;;;4959934;28;20057;-75
2022/01/11 04:53:37;;;;;;;40.28;24.98;;;1.50;93.30;;;;;;4958727;28;20039;-74
2022/01/11 04:56:03;;;;;;;37.22;26.65;;;1.60;93.40;;;;;;4927067;28;20046;-75
2022/01/11 04:58:29;;;;;;;41.83;24.95;;;1.50;93.40;;;;;;4926562;28;20050;-75
2022/01/11 05:00:55;;;;;;;43.30;27.15;;;1.50;93.40;;;;;;4927104;28;20051;-75
2022/01/11 05:03:20;;;;;;;42.45;25.70;;;1.50;93.30;;;;;;4926751;28;20470;-75
2022/01/11 05:05:46;;;;;;;40.15;25.25;;;1.50;93.40;;;;;;4975810;28;20305;-75
2022/01/11 05:08:13;;;;;;;40.97;26.10;;;1.50;93.40;;;;;;4942589;28;20057;-75
2022/01/11 05:10:42;;;;;;;39.50;26.45;;;1.50;93.40;;;;;;4957951;28;20067;-73
2022/01/11 05:13:15;;;;;;;39.83;25.90;;;1.50;93.40;;;;;;4959460;28;20050;-74
2022/01/11 05:15:41;;;;;;;38.65;25.52;;;1.50;93.40;;;;;;4958311;28;20049;-74
2022/01/11 05:18:07;;;;;;;44.85;27.15;;;1.60;93.40;;;;;;4958444;28;20184;-74
2022/01/11 05:20:34;;;;;;;37.47;24.48;;;1.50;93.30;;;;;;4942864;28;20117;-74
2022/01/11 05:23:00;;;;;;;38.83;25.77;;;1.50;93.40;;;;;;4958757;28;20403;-75
2022/01/11 05:25:25;;;;;;;41.00;26.30;;;1.60;93.40;;;;;;4958526;28;20112;-75
2022/01/11 05:27:51;;;;;;;41.78;26.80;;;1.50;93.40;;;;;;4957573;28;20047;-74
2022/01/11 05:30:17;;;;;;;42.80;26.92;;;1.50;93.40;;;;;;4942055;28;20514;-75
2022/01/11 05:32:46;;;;;;;40.72;27.23;;;1.50;93.40;;;;;;4958617;28;20057;-75
2022/01/11 05:35:12;;;;;;;43.10;27.77;;;1.50;93.40;;;;;;4943464;28;20356;-75
2022/01/11 05:37:38;;;;;;;39.83;26.85;;;1.50;93.40;;;;;;4942582;28;20046;-75
2022/01/11 05:40:05;;;;;;;43.35;27.08;;;1.50;93.40;;;;;;4926650;28;20534;-75
2022/01/11 05:42:33;;;;;;;42.67;26.63;;;1.50;93.40;;;;;;4942599;28;20062;-75
2022/01/11 05:44:59;;;;;;;42.15;26.05;;;1.50;93.40;;;;;;4957384;28;20047;-75
2022/01/11 05:47:25;;;;;;;44.40;26.67;;;1.50;93.40;;;;;;4975025;28;20050;-75
2022/01/11 05:49:50;;;;;;;44.58;27.52;;;1.50;93.40;;;;;;4957706;28;20050;-75
2022/01/11 05:52:17;;;;;;;45.28;27.45;;;1.50;93.40;;;;;;4958068;28;20059;-75
2022/01/11 05:54:42;;;;;;;44.75;28.42;;;1.50;93.40;;;;;;4974865;28;20046;-75
2022/01/11 05:57:08;;;;;;;41.72;27.42;;;1.50;93.40;;;;;;4942506;28;20053;-76
2022/01/11 05:59:37;;;;;;;41.92;26.23;;;1.50;93.40;;;;;;4975105;28;20121;-76
2022/01/11 06:02:03;;;;;;;40.72;26.35;;;1.50;93.40;;;;;;4973927;28;20054;-75
2022/01/11 06:04:28;;;;;;;41.60;25.83;;;1.50;93.30;;;;;;4941993;28;20043;-75
2022/01/11 06:06:54;;;;;;;42.22;25.80;;;1.50;93.30;;;;;;4974913;28;20035;-75
2022/01/11 06:09:20;;;;;;;39.65;25.63;;;1.50;93.30;;;;;;4932644;29;20095;-75
2022/01/11 06:11:45;;;;;;;35.00;25.08;;;1.50;93.30;;;;;;4936052;29;20396;-75
2022/01/11 06:14:11;;;;;;;41.90;26.02;;;1.40;93.30;;;;;;4951199;29;20044;-76
2022/01/11 06:16:37;;;;;;;39.47;25.80;;;1.40;93.30;;;;;;4950661;29;20052;-74
2022/01/11 06:19:03;;;;;;;42.30;25.00;;;1.40;93.30;;;;;;4936074;29;20043;-75
2022/01/11 06:21:29;;;;;;;38.33;24.73;;;1.40;93.30;;;;;;4934306;29;20051;-76
2022/01/11 06:23:55;;;;;;;36.47;24.10;;;1.40;93.30;;;;;;4950106;29;20040;-75
2022/01/11 06:26:23;;;;;;;38.00;24.13;;;1.40;93.30;;;;;;4935077;29;20055;-76
2022/01/11 06:28:49;;;;;;;39.17;24.60;;;1.40;93.30;;;;;;4934450;29;20111;-75
2022/01/11 06:31:14;;;;;;;36.30;24.25;;;1.40;93.20;;;;;;4935850;29;20432;-76
2022/01/11 06:33:42;;;;;;;36.88;23.92;;;1.40;93.20;;;;;;4935640;29;20055;-74
2022/01/11 06:36:10;;;;;;;36.55;23.48;;;1.40;93.30;;;;;;4920615;29;20075;-75
2022/01/11 06:38:39;;;;;;;37.53;23.65;;;1.40;93.20;;;;;;4919285;29;20381;-75
2022/01/11 06:41:05;;;;;;;36.88;23.80;;;1.30;93.20;;;;;;4934705;29;20396;-75
2022/01/11 06:43:30;;;;;;;39.53;23.45;;;1.30;93.20;;;;;;4935868;29;20043;-74
2022/01/11 06:45:56;;;;;;;39.40;23.42;;;1.30;93.50;;;;;;4934778;29;20055;-75
2022/01/11 06:48:22;;;;;;;37.38;22.73;;;1.30;93.20;;;;;;4950972;29;20078;-74
2022/01/11 06:50:47;;;;;;;32.22;21.42;;;1.30;93.20;;;;;;4934057;29;20055;-75
2022/01/11 06:53:13;;;;;;;32.28;21.13;;;1.30;93.20;;;;;;4933059;29;20083;-76
2022/01/11 06:55:39;;;;;;;35.58;22.30;;;1.30;93.20;;;;;;4917144;29;20050;-75
2022/01/11 06:58:05;;;;;;;27.15;17.40;;;1.30;93.20;;;;;;4933538;29;20123;-71
2022/01/11 07:00:31;;;;;;;31.05;20.70;;;1.30;93.20;;;;;;4934411;29;20117;-73
2022/01/11 07:02:56;;;;;;;28.52;20.08;;;1.60;94.10;;;;;;4933652;29;20124;-75
2022/01/11 07:05:25;;;;;;;27.95;20.02;;;1.60;93.30;;;;;;4950413;29;20052;-79
2022/01/11 07:07:50;;;;;;;32.45;19.77;;;1.60;93.40;;;;;;4918507;29;20515;-75
2022/01/11 07:10:16;;;;;;;30.20;19.20;;;1.50;93.00;;;;;;4917875;29;20059;-75
2022/01/11 07:12:42;;;;;;;29.15;20.65;;;1.50;93.00;;;;;;4932078;29;20051;-74
2022/01/11 07:15:08;;;;;;;30.95;20.13;;;1.50;93.30;;;;;;4933359;29;20090;-75
2022/01/11 07:17:34;;;;;;;29.55;18.63;;;1.50;93.00;;;;;;4934818;29;20090;-75
2022/01/11 07:19:59;;;;;;;31.63;20.17;;;1.40;93.00;;;;;;4949467;29;20097;-75
2022/01/11 07:22:25;;;;;;;29.90;18.60;;;1.40;93.00;;;;;;4933600;29;20400;-74
2022/01/11 07:24:51;;;;;;;28.02;17.70;;;1.40;93.00;;;;;;4933472;29;20051;-75
2022/01/11 07:27:16;;;;;;;27.05;18.73;;;1.40;93.00;;;;;;4949536;29;20052;-76
2022/01/11 07:29:42;;;;;;;29.13;17.92;;;1.40;93.00;;;;;;4934618;29;20106;-75
2022/01/11 07:32:08;;;;;;;25.05;15.73;;;1.30;92.90;;;;;;4933330;29;20065;-78
2022/01/11 07:34:34;;;;;;;27.05;17.48;;;1.30;92.90;;;;;;4917981;29;20059;-75
2022/01/11 07:36:59;;;;;;;23.75;16.73;;;1.60;93.80;;;;;;4935896;29;20051;-76
2022/01/11 07:39:25;;;;;;;27.20;17.10;;;1.60;93.00;;;;;;4950284;29;20531;-76
2022/01/11 07:41:51;;;;;;;28.95;15.95;;;1.60;92.80;;;;;;4949517;29;20066;-74
2022/01/11 07:44:17;;;;;;;22.77;16.08;;;1.60;92.70;;;;;;4917172;29;20056;-75
2022/01/11 07:46:43;;;;;;;22.70;15.82;;;1.50;92.70;;;;;;4935293;29;20130;-74
2022/01/11 07:49:09;;;;;;;23.65;16.33;;;1.50;92.70;;;;;;4933802;29;20111;-74
2022/01/11 07:51:35;;;;;;;24.00;17.17;;;1.50;92.70;;;;;;4950109;29;20052;-75
2022/01/11 07:54:00;;;;;;;25.92;15.68;;;1.50;92.70;;;;;;4933752;29;20404;-74
2022/01/11 07:56:26;;;;;;;27.85;16.98;;;1.50;92.80;;;;;;4950288;29;20062;-75
2022/01/11 07:58:52;;;;;;;23.90;16.02;;;1.40;92.80;;;;;;4950232;29;20404;-74
2022/01/11 08:01:17;;;;;;;23.92;17.65;;;1.40;92.80;;;;;;4934166;29;20195;-75
2022/01/11 08:03:45;;;;;;;27.90;17.20;;;1.50;92.80;;;;;;4934201;29;20404;-74
2022/01/11 08:06:11;;;;;;;23.73;16.02;;;1.50;92.80;;;;;;4934143;29;20044;-75
2022/01/11 08:08:37;;;;;;;25.23;16.42;;;1.50;92.80;;;;;;4938716;29;20054;-74
2022/01/11 08:11:02;;;;;;;25.70;17.33;;;1.50;92.80;;;;;;4952928;29;20118;-75
2022/01/11 08:13:29;;;;;;;25.38;17.77;;;1.60;92.80;;;;;;4938829;29;20044;-74
2022/01/11 08:15:55;;;;;;;27.02;17.40;;;1.60;92.70;;;;;;4921920;29;20051;-75
2022/01/11 08:18:20;;;;;;;25.20;16.88;;;1.60;92.70;;;;;;4937106;29;20063;-74
2022/01/11 08:20:47;;;;;;;28.27;17.75;;;1.60;92.70;;;;;;4954033;29;20052;-75
2022/01/11 08:23:13;;;;;;;28.38;17.67;;;1.60;92.70;;;;;;4953098;29;20139;-74
2022/01/11 08:25:39;;;;;;;24.65;16.73;;;1.60;92.70;;;;;;4937286;29;20056;-75
2022/01/11 08:28:05;;;;;;;28.10;17.27;;;1.70;92.70;;;;;;4953167;29;20052;-75
2022/01/11 08:30:31;;;;;;;24.92;18.08;;;1.70;92.60;;;;;;4921676;29;20407;-76
2022/01/11 08:32:57;;;;;;;30.38;18.65;;;1.80;92.70;;;;;;4939076;29;20044;-75
2022/01/11 08:35:30;;;;;;;26.85;17.52;;;1.80;92.60;;;;;;4953391;29;20058;-75
2022/01/11 08:37:56;;;;;;;26.75;17.10;;;1.90;92.60;;;;;;4937516;29;20048;-75
2022/01/11 08:40:22;;;;;;;27.67;17.88;;;1.90;92.60;;;;;;4938989;29;20135;-75
2022/01/11 08:42:48;;;;;;;27.85;17.70;;;2.00;92.60;;;;;;4938121;29;20055;-74
2022/01/11 08:45:16;;;;;;;27.73;18.08;;;2.00;92.50;;;;;;4953130;29;20044;-75
2022/01/11 08:47:45;;;;;;;30.85;19.17;;;2.00;92.50;;;;;;4938568;29;20043;-75
2022/01/11 08:50:14;;;;;;;28.58;17.90;;;2.10;92.50;;;;;;4938315;29;20114;-75
2022/01/11 08:52:41;;;;;;;28.60;18.88;;;2.10;92.80;;;;;;4938671;29;20047;-76
2022/01/11 08:55:07;;;;;;;27.98;17.58;;;2.10;92.40;;;;;;4953071;29;20043;-78
2022/01/11 08:57:34;;;;;;;30.05;18.85;;;2.10;92.40;;;;;;4937297;29;20056;-74
2022/01/11 09:00:02;;;;;;;26.55;19.25;;;2.10;92.40;;;;;;4938612;29;20059;-75
2022/01/11 09:02:32;;;;;;;28.95;18.40;;;2.20;92.40;;;;;;4938175;29;20488;-75
2022/01/11 09:05:01;;;;;;;28.70;18.58;;;2.10;92.40;;;;;;4938860;29;20147;-76
2022/01/11 09:07:27;;;;;;;30.73;18.65;;;2.20;92.40;;;;;;4938574;29;20407;-75
2022/01/11 09:09:52;;;;;;;30.30;19.00;;;2.20;92.40;;;;;;4954860;28;20055;-75
2022/01/11 09:12:21;;;;;;;32.30;20.25;;;2.30;92.50;;;;;;4959497;28;20487;-74
2022/01/11 09:14:46;;;;;;;29.02;19.80;;;2.30;92.40;;;;;;4912337;28;20145;-74
2022/01/11 09:17:12;;;;;;;28.77;18.98;;;2.30;92.40;;;;;;4943492;28;20130;-75
2022/01/11 09:19:41;;;;;;;28.13;18.63;;;2.30;92.40;;;;;;4958341;28;20043;-75
2022/01/11 09:22:07;;;;;;;29.65;18.65;;;2.30;92.40;;;;;;4928124;28;20090;-75
2022/01/11 09:24:32;;;;;;;27.10;20.10;;;2.40;92.40;;;;;;4958663;28;20088;-75
2022/01/11 09:27:04;;;;;;;28.33;18.13;;;2.40;92.40;;;;;;4958487;28;20051;-75
2022/01/11 09:29:31;;;;;;;29.08;19.55;;;2.40;92.40;;;;;;4943021;28;20050;-75
2022/01/11 09:31:57;;;;;;;29.83;19.30;;;2.40;92.40;;;;;;4975795;28;20514;-74
2022/01/11 09:34:23;;;;;;;28.00;20.15;;;2.40;92.40;;;;;;4959098;28;20047;-75
2022/01/11 09:36:52;;;;;;;28.08;19.05;;;2.50;92.40;;;;;;4976811;28;20098;-74
2022/01/11 09:39:17;;;;;;;28.75;18.77;;;2.50;92.40;;;;;;4976257;28;20049;-75
2022/01/11 09:41:43;;;;;;;29.77;19.17;;;2.50;92.40;;;;;;4976132;28;20046;-73
2022/01/11 09:44:09;;;;;;;28.30;19.05;;;2.60;92.40;;;;;;4959585;28;20497;-75
2022/01/11 09:46:35;;;;;;;30.20;19.42;;;2.60;92.30;;;;;;4977278;28;20051;-74
2022/01/11 09:49:01;;;;;;;28.75;18.90;;;2.60;92.30;;;;;;4976985;28;20049;-75
2022/01/11 09:51:26;;;;;;;28.75;19.20;;;2.70;92.30;;;;;;4958761;28;20462;-76
2022/01/11 09:53:53;;;;;;;28.23;19.50;;;2.60;92.30;;;;;;4976840;28;20050;-76
2022/01/11 09:56:18;;;;;;;29.70;19.90;;;2.70;92.30;;;;;;4958133;28;20046;-75
2022/01/11 09:58:44;;;;;;;29.65;19.30;;;2.70;92.30;;;;;;4958745;28;20042;-76
2022/01/11 10:01:10;;;;;;;27.95;20.30;;;2.70;92.30;;;;;;4942719;28;20054;-76
2022/01/11 10:03:55;;;;;;;34.13;19.45;;;2.80;92.30;;;;;;4975801;28;20053;-75
2022/01/11 10:06:25;;;;;;;29.67;19.83;;;2.70;92.20;;;;;;4959230;28;20051;-74
2022/01/11 10:08:51;;;;;;;27.45;19.10;;;2.70;92.30;;;;;;4929377;28;20407;-74
2022/01/11 10:11:36;;;;;;;29.40;19.13;;;2.70;92.20;;;;;;4936928;29;20066;-75
2022/01/11 10:14:19;;;;;;;29.40;19.08;;;2.70;92.20;;;;;;4936233;29;20067;-74
2022/01/11 10:16:45;;;;;;;30.85;19.55;;;2.70;92.20;;;;;;4935924;29;20183;-75
2022/01/11 10:19:26;;;;;;;27.42;18.52;;;2.70;92.20;;;;;;4919499;29;20515;-75
2022/01/11 10:21:54;;;;;;;26.30;19.48;;;2.70;92.20;;;;;;4935924;29;20055;-74
2022/01/11 10:24:27;;;;;;;28.17;19.55;;;2.70;92.20;;;;;;4936196;29;20188;-74
2022/01/11 10:26:54;;;;;;;28.90;19.77;;;2.70;92.20;;;;;;4935307;29;20047;-75
2022/01/11 10:29:37;;;;;;;28.50;20.13;;;2.70;92.20;;;;;;4903852;29;20067;-74
2022/01/11 10:32:31;;;;;;;33.78;19.10;;;2.70;92.20;;;;;;4936572;29;20050;-74
2022/01/11 10:35:14;;;;;;;29.48;19.00;;;2.70;92.20;;;;;;4935621;29;20055;-74
2022/01/11 10:37:42;;;;;;;28.13;18.25;;;2.70;92.20;;;;;;4920882;29;20044;-75
2022/01/11 10:40:09;;;;;;;30.65;19.83;;;2.70;92.20;;;;;;4936222;29;20087;-75
2022/01/11 10:42:38;;;;;;;29.40;19.70;;;2.80;92.20;;;;;;4935767;29;20127;-75
2022/01/11 10:45:12;;;;;;;30.45;18.77;;;2.80;92.20;;;;;;4935284;29;20052;-74
2022/01/11 10:47:40;;;;;;;29.05;18.48;;;2.90;92.20;;;;;;4903916;29;20051;-74
2022/01/11 10:50:08;;;;;;;27.60;18.55;;;2.90;92.50;;;;;;4919533;29;20050;-74
2022/01/11 10:52:37;;;;;;;26.45;17.85;;;2.90;92.20;;;;;;4934899;29;20194;-74
2022/01/11 10:55:07;;;;;;;30.75;19.52;;;3.00;92.20;;;;;;4935233;29;20052;-75
2022/01/11 10:57:37;;;;;;;32.72;19.52;;;3.00;92.10;;;;;;4934378;29;20492;-75
2022/01/11 11:00:11;;;;;;;31.20;19.67;;;3.10;92.20;;;;;;4919564;29;20052;-75
2022/01/11 11:02:38;;;;;;;26.88;18.13;;;3.10;92.10;;;;;;4934298;29;20511;-74
2022/01/11 11:05:41;;;;;;;31.75;18.80;;;3.10;92.00;;;;;;4935145;29;20503;-75
2022/01/11 11:08:11;;;;;;;29.77;19.15;;;3.20;92.00;;;;;;4877373;29;20102;-75
2022/01/11 11:10:38;;;;;;;29.98;18.67;;;3.30;92.00;;;;;;4954063;28;20059;-75
2022/01/11 11:13:05;;;;;;;32.13;19.80;;;3.40;91.90;;;;;;4974948;28;20050;-75
2022/01/11 11:15:37;;;;;;;29.02;18.77;;;3.50;91.90;;;;;;4956909;28;20511;-75
2022/01/11 11:18:03;;;;;;;26.57;18.03;;;3.60;91.80;;;;;;4973363;28;20090;-75
2022/01/11 11:20:32;;;;;;;34.05;20.48;;;3.70;91.70;;;;;;4940777;28;20058;-75
2022/01/11 11:22:59;;;;;;;35.92;20.05;;;3.90;91.60;;;;;;4957318;28;20357;-75
2022/01/11 11:25:25;;;;;;;30.45;19.55;;;4.20;91.50;;;;;;4974121;28;20057;-76
2022/01/11 11:27:51;;;;;;;34.88;18.27;;;4.60;91.20;;;;;;4974288;28;20046;-76
2022/01/11 11:30:19;;;;;;;30.85;19.67;;;4.90;90.60;;;;;;4941202;28;20142;-73
2022/01/11 11:32:48;;;;;;;33.20;17.65;;;5.00;90.10;;;;;;4956413;28;20046;-75
2022/01/11 11:35:15;;;;;;;31.65;18.77;;;4.90;90.00;;;;;;4957126;28;20053;-75
2022/01/11 11:37:41;;;;;;;29.08;17.45;;;4.80;90.10;;;;;;4956173;28;20093;-75
2022/01/11 11:40:10;;;;;;;30.40;18.35;;;4.70;90.10;;;;;;4956721;28;20079;-76
2022/01/11 11:42:36;;;;;;;16.58;9.63;;;4.60;90.20;;;;;;4944616;28;20047;-80
2022/01/11 11:45:14;;;;;;;26.52;16.25;;;4.70;90.80;;;;;;4928249;28;20056;-77
2022/01/11 11:47:40;;;;;;;29.48;17.02;;;5.00;91.30;;;;;;4944219;28;20046;-77
2022/01/11 11:50:06;;;;;;;28.95;17.55;;;5.20;90.50;;;;;;4945357;28;20124;-75
2022/01/11 11:52:42;;;;;;;29.80;17.83;;;5.60;89.90;;;;;;4960056;28;20495;-76
2022/01/11 11:55:23;;;;;;;28.00;17.83;;;6.20;88.30;;;;;;4958875;28;20099;-74
2022/01/11 11:58:01;;;;;;;30.88;17.33;;;7.00;86.50;;;;;;4959560;28;20121;-76
2022/01/11 12:00:39;;;;;;;29.65;17.45;;;7.80;84.80;;;;;;4945469;28;20114;-76
2022/01/11 12:03:25;;;;;;;26.75;17.00;;;8.50;83.20;;;;;;4961074;28;20137;-75
2022/01/11 12:05:54;;;;;;;30.40;17.48;;;9.20;81.50;;;;;;4961106;28;20123;-76
2022/01/11 12:08:34;;;;;;;24.88;16.33;;;9.70;80.90;;;;;;4960373;28;20134;-75
2022/01/11 12:11:15;;;;;;;25.00;16.23;;;10.20;79.40;;;;;;4977508;28;20059;-78
2022/01/11 12:13:54;;;;;;;26.67;16.55;;;10.50;79.40;;;;;;4943202;28;20133;-76
2022/01/11 12:16:25;;;;;;;28.85;17.33;;;10.90;77.90;;;;;;4957274;28;20046;-77
2022/01/11 12:18:57;;;;;;;23.20;15.30;;;11.10;77.90;;;;;;4974945;28;20050;-77
2022/01/11 12:21:26;;;;;;;25.90;16.48;;;11.30;77.80;;;;;;4941414;28;20102;-77
2022/01/11 12:24:00;;;;;;;25.38;16.85;;;11.40;77.80;;;;;;4942782;28;20076;-77
2022/01/11 12:26:28;;;;;;;26.52;17.70;;;11.40;76.40;;;;;;4939948;28;20175;-77
2022/01/11 12:29:03;;;;;;;23.15;16.40;;;11.40;76.90;;;;;;4959452;28;20038;-76
2022/01/11 12:31:33;;;;;;;26.15;17.40;;;11.70;75.60;;;;;;4976348;28;20438;-77
2022/01/11 12:33:58;;;;;;;25.70;18.20;;;12.00;75.50;;;;;;4944411;28;20045;-78
2022/01/11 12:36:49;;;;;;;25.90;16.35;;;12.20;74.70;;;;;;4944525;28;20094;-76
2022/01/11 12:39:14;;;;;;;24.77;15.57;;;12.40;72.40;;;;;;4975553;28;20426;-77